createdAt,value
2018-07-10T00:02:12.163Z,4.87
2018-07-10T00:05:23.296Z,4.67
2018-07-10T00:10:34.281Z,5.20
2018-07-10T00:13:03.650Z,5.43
2018-07-10T00:15:32.335Z,4.53
2018-07-10T00:18:01.144Z,5.07
2018-07-10T00:20:30.332Z,5.50
2018-07-10T00:22:59.761Z,4.93
2018-07-10T00:25:29.016Z,4.40
2018-07-10T00:27:57.652Z,5.23
2018-07-10T00:30:26.924Z,5.30
2018-07-10T00:32:56.132Z,5.03
2018-07-10T00:35:25.535Z,5.03
2018-07-10T00:38:05.588Z,4.67
2018-07-10T00:40:34.954Z,5.40
2018-07-10T00:43:08.093Z,4.83
2018-07-10T00:45:37.404Z,5.43
2018-07-10T00:48:06.820Z,5.07
2018-07-10T00:50:36.360Z,4.93
2018-07-10T00:53:04.974Z,5.43
2018-07-10T00:55:34.370Z,4.80
2018-07-10T00:58:03.948Z,5.50
2018-07-10T01:00:34.555Z,5.10
2018-07-10T01:03:03.776Z,5.10
2018-07-10T01:05:32.710Z,5.00
2018-07-10T01:08:02.077Z,5.77
2018-07-10T01:10:30.620Z,4.83
2018-07-10T01:12:59.953Z,4.57
2018-07-10T01:15:28.707Z,5.03
2018-07-10T01:17:57.920Z,5.10
2018-07-10T01:20:27.107Z,5.07
2018-07-10T01:22:56.344Z,5.27
2018-07-10T01:25:25.575Z,4.97
2018-07-10T01:27:55.515Z,5.57
2018-07-10T01:30:24.788Z,5.27
2018-07-10T01:32:54.052Z,5.17
2018-07-10T01:35:22.555Z,5.10
2018-07-10T01:37:51.881Z,5.50
2018-07-10T01:40:22.012Z,5.17
2018-07-10T01:42:51.199Z,5.10
2018-07-10T01:45:20.439Z,5.13
2018-07-10T01:47:49.091Z,4.77
2018-07-10T01:50:18.476Z,4.80
2018-07-10T01:52:47.588Z,5.00
2018-07-10T01:55:16.728Z,5.07
2018-07-10T01:57:45.379Z,4.80
2018-07-10T02:00:24.016Z,5.03
2018-07-10T02:02:53.261Z,4.80
2018-07-10T02:05:22.667Z,4.97
2018-07-10T02:07:51.926Z,5.40
2018-07-10T02:10:21.289Z,5.00
2018-07-10T02:12:50.560Z,5.30
2018-07-10T02:15:19.825Z,5.67
2018-07-10T02:17:48.959Z,5.47
2018-07-10T02:20:18.274Z,4.80
2018-07-10T02:22:47.740Z,5.20
2018-07-10T02:25:16.339Z,5.00
2018-07-10T02:27:45.658Z,5.33
2018-07-10T02:30:15.115Z,5.47
2018-07-10T02:32:43.879Z,5.60
2018-07-10T02:35:13.476Z,5.57
2018-07-10T02:37:45.953Z,6.03
2018-07-10T02:40:15.189Z,5.20
2018-07-10T02:42:43.896Z,5.70
2018-07-10T02:45:13.108Z,5.63
2018-07-10T02:47:42.412Z,5.80
2018-07-10T02:50:11.716Z,6.80
2018-07-10T02:52:41.755Z,6.40
2018-07-10T02:55:11.128Z,5.60
2018-07-10T02:57:40.488Z,5.70
2018-07-10T03:00:09.245Z,5.70
2018-07-10T03:02:38.571Z,5.40
2018-07-10T03:05:08.022Z,5.17
2018-07-10T03:07:38.227Z,5.70
2018-07-10T03:10:07.518Z,5.53
2018-07-10T03:12:36.571Z,5.40
2018-07-10T03:15:10.956Z,5.70
2018-07-10T03:17:40.359Z,5.70
2018-07-10T03:20:10.844Z,5.20
2018-07-10T03:22:39.591Z,5.90
2018-07-10T03:25:09.509Z,5.80
2018-07-10T03:27:38.791Z,6.03
2018-07-10T03:30:08.292Z,5.80
2018-07-10T03:32:37.565Z,6.10
2018-07-10T03:35:06.237Z,5.80
2018-07-10T03:37:35.448Z,5.30
2018-07-10T03:40:04.196Z,6.17
2018-07-10T03:42:33.417Z,6.17
2018-07-10T03:45:02.780Z,5.73
2018-07-10T03:47:32.028Z,5.43
2018-07-10T03:50:00.779Z,5.80
2018-07-10T03:52:33.592Z,5.90
2018-07-10T03:55:15.009Z,5.50
2018-07-10T03:57:44.316Z,5.27
2018-07-10T04:00:14.660Z,5.63
2018-07-10T04:02:48.244Z,5.63
2018-07-10T04:05:18.714Z,5.47
2018-07-10T04:07:49.165Z,6.07
2018-07-10T04:10:18.452Z,6.00
2018-07-10T04:12:49.559Z,5.40
2018-07-10T04:15:19.204Z,5.70
2018-07-10T04:17:58.675Z,5.90
2018-07-10T04:20:35.767Z,6.47
2018-07-10T04:23:05.148Z,6.13
2018-07-10T04:25:35.572Z,6.07
2018-07-10T04:28:25.549Z,6.33
2018-07-10T04:30:59.508Z,6.37
2018-07-10T04:33:28.788Z,6.17
2018-07-10T04:35:58.096Z,5.67
2018-07-10T04:38:28.949Z,5.80
2018-07-10T04:41:08.656Z,6.63
2018-07-10T04:43:41.375Z,5.90
2018-07-10T04:46:10.617Z,6.53
2018-07-10T04:48:41.003Z,6.40
2018-07-10T04:51:46.489Z,6.43
2018-07-10T04:54:26.528Z,7.40
2018-07-10T04:56:59.156Z,7.83
2018-07-10T04:59:28.152Z,7.33
2018-07-10T05:01:57.303Z,7.37
2018-07-10T05:04:26.307Z,7.37
2018-07-10T05:06:54.879Z,7.47
2018-07-10T05:09:23.868Z,7.20
2018-07-10T05:11:52.912Z,7.00
2018-07-10T05:14:21.908Z,7.60
2018-07-10T05:16:50.964Z,7.47
2018-07-10T05:19:19.944Z,7.40
2018-07-10T05:21:48.965Z,6.83
2018-07-10T05:24:17.984Z,7.43
2018-07-10T05:26:47.013Z,6.83
2018-07-10T05:29:16.008Z,6.97
2018-07-10T05:31:45.045Z,7.37
2018-07-10T05:34:14.032Z,6.87
2018-07-10T05:36:43.089Z,7.03
2018-07-10T05:39:12.110Z,7.23
2018-07-10T05:41:48.285Z,7.47
2018-07-10T05:44:21.065Z,7.33
2018-07-10T05:46:50.400Z,7.30
2018-07-10T05:49:19.840Z,6.73
2018-07-10T05:51:51.109Z,6.67
2018-07-10T05:54:20.804Z,6.70
2018-07-10T05:56:49.890Z,7.00
2018-07-10T05:59:18.854Z,6.77
2018-07-10T06:01:47.871Z,6.87
2018-07-10T06:04:17.919Z,6.57
2018-07-10T06:06:47.766Z,6.23
2018-07-10T06:09:18.097Z,6.00
2018-07-10T06:11:47.346Z,6.13
2018-07-10T06:14:16.256Z,6.30
2018-07-10T06:16:45.516Z,6.23
2018-07-10T06:19:14.584Z,5.77
2018-07-10T06:21:47.960Z,5.73
2018-07-10T06:24:25.936Z,6.20
2018-07-10T06:27:01.968Z,6.27
2018-07-10T06:29:45.348Z,5.80
2018-07-10T06:32:19.305Z,6.07
2018-07-10T06:34:48.815Z,5.83
2018-07-10T06:37:23.959Z,6.20
2018-07-10T06:39:53.888Z,5.70
2018-07-10T06:42:26.288Z,6.43
2018-07-10T06:44:55.328Z,6.83
2018-07-10T06:47:29.448Z,6.80
2018-07-10T06:50:00.059Z,6.80
2018-07-10T06:52:29.273Z,7.40
2018-07-10T06:55:13.110Z,6.93
2018-07-10T06:57:52.263Z,6.50
2018-07-10T07:00:21.312Z,6.60
2018-07-10T07:02:50.298Z,6.30
2018-07-10T07:05:20.399Z,6.33
2018-07-10T07:07:49.406Z,5.83
2018-07-10T07:10:18.413Z,5.50
2018-07-10T07:12:47.521Z,5.83
2018-07-10T07:15:20.582Z,5.70
2018-07-10T07:17:50.764Z,5.50
2018-07-10T07:20:20.471Z,5.30
2018-07-10T07:22:49.428Z,5.13
2018-07-10T07:25:18.539Z,5.13
2018-07-10T07:27:47.521Z,5.60
2018-07-10T07:30:16.458Z,5.40
2018-07-10T07:32:46.376Z,5.40
2018-07-10T07:35:15.274Z,5.67
2018-07-10T07:37:44.252Z,5.10
2018-07-10T07:40:13.139Z,5.00
2018-07-10T07:42:41.944Z,4.83
2018-07-10T07:45:10.924Z,4.83
2018-07-10T07:47:39.495Z,4.67
2018-07-10T07:50:08.360Z,4.60
2018-07-10T07:52:37.571Z,4.30
2018-07-10T07:55:06.508Z,4.63
2018-07-10T07:57:35.508Z,4.90
2018-07-10T08:00:04.493Z,4.50
2018-07-10T08:02:33.520Z,4.13
2018-07-10T08:05:02.500Z,4.20
2018-07-10T08:07:31.536Z,4.20
2018-07-10T08:10:01.216Z,4.57
2018-07-10T08:12:30.968Z,4.37
2018-07-10T08:15:00.520Z,4.07
2018-07-10T08:17:29.627Z,3.87
2018-07-10T08:19:59.689Z,4.10
2018-07-10T08:22:28.568Z,4.17
2018-07-10T08:24:58.173Z,4.20
2018-07-10T08:27:27.268Z,4.27
2018-07-10T08:29:57.297Z,4.53
2018-07-10T08:32:28.422Z,4.30
2018-07-10T08:34:57.457Z,4.40
2018-07-10T08:37:26.456Z,4.27
2018-07-10T08:39:55.448Z,3.83
2018-07-10T08:42:24.435Z,4.17
2018-07-10T08:44:53.941Z,4.10
2018-07-10T08:47:22.928Z,4.10
2018-07-10T08:49:51.984Z,4.10
2018-07-10T08:52:20.944Z,4.60
2018-07-10T08:54:49.987Z,4.27
2018-07-10T08:57:18.579Z,4.43
2018-07-10T08:59:47.951Z,4.20
2018-07-10T09:02:16.912Z,4.08
2018-07-10T09:04:45.877Z,4.10
2018-07-10T09:07:14.902Z,4.40
2018-07-10T09:09:43.860Z,4.47
2018-07-10T09:12:13.199Z,4.47
2018-07-10T09:14:42.452Z,4.30
2018-07-10T09:17:11.472Z,4.30
2018-07-10T09:19:40.696Z,4.42
2018-07-10T09:22:13.549Z,4.50
2018-07-10T09:24:51.475Z,4.30
2018-07-10T09:27:22.010Z,4.08
2018-07-10T09:29:51.254Z,4.12
2018-07-10T09:32:26.064Z,4.08
2018-07-10T09:34:58.098Z,4.53
2018-07-10T09:37:33.232Z,4.55
2018-07-10T09:40:07.520Z,4.05
2018-07-10T09:42:38.040Z,4.65
2018-07-10T09:45:07.100Z,4.80
2018-07-10T09:47:36.141Z,4.35
2018-07-10T09:50:05.296Z,4.58
2018-07-10T09:52:34.287Z,3.72
2018-07-10T09:55:03.514Z,4.70
2018-07-10T09:57:32.981Z,4.33
2018-07-10T10:00:02.829Z,4.17
2018-07-10T10:02:35.120Z,4.50
2018-07-10T10:05:05.781Z,3.98
2018-07-10T10:07:34.839Z,4.40
2018-07-10T10:10:04.733Z,4.50
2018-07-10T10:12:33.716Z,4.42
2018-07-10T10:15:02.941Z,4.10
2018-07-10T10:17:32.171Z,4.45
2018-07-10T10:20:01.497Z,4.78
2018-07-10T10:22:32.264Z,4.10
2018-07-10T10:25:02.723Z,4.22
2018-07-10T10:27:31.914Z,4.60
2018-07-10T10:30:01.661Z,4.28
2018-07-10T10:32:30.891Z,4.97
2018-07-10T10:34:59.939Z,4.47
2018-07-10T10:37:29.004Z,4.80
2018-07-10T10:39:58.306Z,4.85
2018-07-10T10:42:27.794Z,4.28
2018-07-10T10:44:57.528Z,4.33
2018-07-10T10:47:26.560Z,4.40
2018-07-10T10:49:57.639Z,4.53
2018-07-10T10:52:26.680Z,4.03
2018-07-10T10:54:55.811Z,4.15
2018-07-10T10:57:26.333Z,4.90
2018-07-10T10:59:55.392Z,4.40
2018-07-10T11:02:24.456Z,4.45
2018-07-10T11:04:53.954Z,4.67
2018-07-10T11:07:23.021Z,4.62
2018-07-10T11:09:52.098Z,4.58
2018-07-10T11:12:21.560Z,4.47
2018-07-10T11:14:50.568Z,4.70
2018-07-10T11:17:28.853Z,4.55
2018-07-10T11:21:10.192Z,4.58
2018-07-10T11:23:56.056Z,4.72
2018-07-10T11:26:33.013Z,4.60
2018-07-10T11:29:03.034Z,4.78
2018-07-10T11:31:32.154Z,4.30
2018-07-10T11:34:01.118Z,4.90
2018-07-10T11:36:30.206Z,4.55
2018-07-10T11:39:02.933Z,4.37
2018-07-10T11:41:32.893Z,5.05
2018-07-10T11:44:06.909Z,4.83
2018-07-10T11:46:36.267Z,4.50
2018-07-10T11:49:05.355Z,4.50
2018-07-10T11:51:34.402Z,5.25
2018-07-10T11:54:03.857Z,4.90
2018-07-10T11:56:32.920Z,4.83
2018-07-10T11:59:02.531Z,4.85
2018-07-10T12:01:32.704Z,4.22
2018-07-10T12:04:01.728Z,4.67
2018-07-10T12:06:31.176Z,4.78
2018-07-10T12:09:01.193Z,3.10
2018-07-10T12:11:31.904Z,3.30
2018-07-10T12:14:00.920Z,3.70
2018-07-10T12:16:29.927Z,3.75
2018-07-10T12:18:59.056Z,3.58
2018-07-10T12:21:28.109Z,3.05
2018-07-10T12:23:57.159Z,2.95
2018-07-10T12:26:26.231Z,2.90
2018-07-10T12:28:55.313Z,3.00
2018-07-10T12:31:24.593Z,3.05
2018-07-10T12:33:53.597Z,2.85
2018-07-10T12:36:22.630Z,3.10
2018-07-10T12:38:51.626Z,3.20
2018-07-10T12:41:20.608Z,3.10
2018-07-10T12:43:50.205Z,3.05
2018-07-10T12:46:19.159Z,2.77
2018-07-10T12:48:48.204Z,2.92
2018-07-10T12:51:17.274Z,3.05
2018-07-10T12:53:46.323Z,2.75
2018-07-10T12:56:16.299Z,3.10
2018-07-10T12:58:45.447Z,3.08
2018-07-10T13:01:14.532Z,3.20
2018-07-10T13:03:44.084Z,3.60
2018-07-10T13:06:13.295Z,3.80
2018-07-10T13:08:42.386Z,3.70
2018-07-10T13:11:11.476Z,3.52
2018-07-10T13:13:40.732Z,4.15
2018-07-10T13:16:09.772Z,4.00
2018-07-10T13:18:39.068Z,3.75
2018-07-10T13:21:08.211Z,4.00
2018-07-10T13:23:38.978Z,4.12
2018-07-10T13:26:08.050Z,4.30
2018-07-10T13:28:37.172Z,4.08
2018-07-10T13:31:06.166Z,4.30
2018-07-10T13:33:36.057Z,4.35
2018-07-10T13:36:05.148Z,4.65
2018-07-10T13:38:34.164Z,4.47
2018-07-10T13:41:03.279Z,3.98
2018-07-10T13:43:32.308Z,4.70
2018-07-10T13:46:01.300Z,4.53
2018-07-10T13:48:29.907Z,3.85
2018-07-10T13:50:58.964Z,4.50
2018-07-10T13:53:27.460Z,4.53
2018-07-10T13:55:56.787Z,4.65
2018-07-10T13:58:29.188Z,4.35
2018-07-10T14:01:03.681Z,4.28
2018-07-10T14:03:32.725Z,4.35
2018-07-10T14:06:01.776Z,4.42
2018-07-10T14:08:31.276Z,4.35
2018-07-10T14:11:00.652Z,4.83
2018-07-10T14:13:29.801Z,4.53
2018-07-10T14:15:58.992Z,5.00
2018-07-10T14:18:28.501Z,4.97
2018-07-10T14:21:00.499Z,4.60
2018-07-10T14:23:29.560Z,5.08
2018-07-10T14:25:58.528Z,4.60
2018-07-10T14:28:27.627Z,5.00
2018-07-10T14:30:56.557Z,4.58
2018-07-10T14:33:25.575Z,5.20
2018-07-10T14:35:54.119Z,4.60
2018-07-10T14:38:25.755Z,4.85
2018-07-10T14:40:55.163Z,4.78
2018-07-10T14:43:27.519Z,4.85
2018-07-10T14:45:58.236Z,4.87
2018-07-10T14:48:30.448Z,4.80
2018-07-10T14:50:59.872Z,4.55
2018-07-10T14:53:28.840Z,5.00
2018-07-10T14:55:57.909Z,4.83
2018-07-10T14:58:26.968Z,5.25
2018-07-10T15:00:55.467Z,4.83
2018-07-10T15:03:24.410Z,4.90
2018-07-10T15:05:53.376Z,5.47
2018-07-10T15:08:22.425Z,5.40
2018-07-10T15:10:51.437Z,5.40
2018-07-10T15:13:21.331Z,5.03
2018-07-10T15:15:57.200Z,5.00
2018-07-10T15:18:31.460Z,5.42
2018-07-10T15:21:00.441Z,5.17
2018-07-10T15:23:29.628Z,4.55
2018-07-10T15:25:58.516Z,4.65
2018-07-10T15:28:27.622Z,4.80
2018-07-10T15:30:56.586Z,5.15
2018-07-10T15:33:25.636Z,4.92
2018-07-10T15:35:54.900Z,5.35
2018-07-10T15:38:24.244Z,5.92
2018-07-10T15:40:53.432Z,5.25
2018-07-10T15:43:25.148Z,5.28
2018-07-10T15:45:54.181Z,4.92
2018-07-10T15:48:23.089Z,4.97
2018-07-10T15:50:53.588Z,4.85
2018-07-10T15:53:22.616Z,5.20
2018-07-10T15:55:51.635Z,6.12
2018-07-10T15:58:20.575Z,4.45
2018-07-10T16:00:49.560Z,4.58
2018-07-10T16:03:18.768Z,3.50
2018-07-10T16:05:47.936Z,4.23
2018-07-10T16:08:18.316Z,3.27
2018-07-10T16:10:51.813Z,3.30
2018-07-10T16:13:22.321Z,3.53
2018-07-10T16:15:54.581Z,3.50
2018-07-10T16:18:25.342Z,3.80
2018-07-10T16:20:56.600Z,3.90
2018-07-10T16:23:25.620Z,3.87
2018-07-10T16:26:03.283Z,3.40
2018-07-10T16:28:32.092Z,4.00
2018-07-10T16:31:00.624Z,4.03
2018-07-10T16:33:32.578Z,4.60
2018-07-10T16:36:03.804Z,5.17
2018-07-10T16:38:33.151Z,4.63
2018-07-10T16:41:07.596Z,4.67
2018-07-10T16:43:36.608Z,10.33
2018-07-10T16:46:06.164Z,5.00
2018-07-10T16:48:43.040Z,4.80
2018-07-10T16:51:21.970Z,4.70
2018-07-10T16:53:55.900Z,5.00
2018-07-10T16:56:25.132Z,5.33
2018-07-10T16:58:55.496Z,5.87
2018-07-10T17:01:26.443Z,6.23
2018-07-10T17:03:55.772Z,6.07
2018-07-10T17:06:25.691Z,6.17
2018-07-10T17:08:54.202Z,6.33
2018-07-10T17:11:23.253Z,6.40
2018-07-10T17:13:52.163Z,6.20
2018-07-10T17:16:25.923Z,6.50
2018-07-10T17:18:54.472Z,6.30
2018-07-10T17:21:23.505Z,6.70
2018-07-10T17:23:54.292Z,6.03
2018-07-10T17:26:23.325Z,6.40
2018-07-10T17:28:53.406Z,6.50
2018-07-10T17:31:21.932Z,6.20
2018-07-10T17:33:51.004Z,6.33
2018-07-10T17:36:19.975Z,6.13
2018-07-10T17:38:49.480Z,6.47
2018-07-10T17:41:18.529Z,6.23
2018-07-10T17:43:47.588Z,6.53
2018-07-10T17:46:16.580Z,6.13
2018-07-10T17:48:45.532Z,6.20
2018-07-10T17:51:14.585Z,6.57
2018-07-10T17:53:43.613Z,5.60
2018-07-10T17:56:13.587Z,6.30
2018-07-10T17:58:42.582Z,6.40
2018-07-10T18:01:11.604Z,6.33
2018-07-10T18:03:40.576Z,5.93
2018-07-10T18:06:09.667Z,6.23
2018-07-10T18:08:38.707Z,6.67
2018-07-10T18:11:07.277Z,5.97
2018-07-10T18:13:36.445Z,6.30
2018-07-10T18:16:05.718Z,6.23
2018-07-10T18:18:35.153Z,6.30
2018-07-10T18:21:03.703Z,6.47
2018-07-10T18:23:32.681Z,6.20
2018-07-10T18:26:01.230Z,6.03
2018-07-10T18:28:30.325Z,6.50
2018-07-10T18:30:59.325Z,6.60
2018-07-10T18:33:28.364Z,7.83
2018-07-10T18:35:57.691Z,6.83
2018-07-10T18:38:26.828Z,6.53
2018-07-10T18:40:57.938Z,7.20
2018-07-10T18:43:27.901Z,7.83
2018-07-10T18:45:57.180Z,6.80
2018-07-10T18:48:27.371Z,7.03
2018-07-10T18:50:57.262Z,7.10
2018-07-10T18:53:27.394Z,7.00
2018-07-10T18:55:56.721Z,6.77
2018-07-10T18:58:32.888Z,5.70
2018-07-10T19:01:13.047Z,6.53
2018-07-10T19:03:45.290Z,7.30
2018-07-10T19:06:15.173Z,6.63
2018-07-10T19:08:47.083Z,6.80
2018-07-10T19:11:22.460Z,7.13
2018-07-10T19:13:52.133Z,6.23
2018-07-10T19:16:22.381Z,5.97
2018-07-10T19:18:51.672Z,6.53
2018-07-10T19:21:28.404Z,6.07
2018-07-10T19:24:03.077Z,6.27
2018-07-10T19:26:32.209Z,5.10
2018-07-10T19:29:09.028Z,5.23
2018-07-10T19:31:38.080Z,5.97
2018-07-10T19:34:07.141Z,4.83
2018-07-10T19:36:36.747Z,4.50
2018-07-10T19:39:07.003Z,4.20
2018-07-10T19:41:36.092Z,3.80
2018-07-10T19:44:05.280Z,3.90
2018-07-10T19:46:35.518Z,4.13
2018-07-10T19:49:05.893Z,4.30
2018-07-10T19:51:34.921Z,4.23
2018-07-10T19:54:14.023Z,4.10
2018-07-10T19:56:43.156Z,4.10
2018-07-10T19:59:14.192Z,6.07
2018-07-10T20:01:59.976Z,7.37
2018-07-10T20:05:02.390Z,5.83
2018-07-10T20:07:35.741Z,4.23
2018-07-10T20:10:12.923Z,5.37
2018-07-10T20:12:49.096Z,6.10
2018-07-10T20:15:25.144Z,5.30
2018-07-10T20:18:04.142Z,4.63
2018-07-10T20:20:35.372Z,5.10
2018-07-10T20:23:43.222Z,5.03
2018-07-10T20:26:14.956Z,5.87
2018-07-10T20:28:53.698Z,5.20
2018-07-10T20:31:55.223Z,4.87
2018-07-10T20:34:32.174Z,5.20
2018-07-10T20:37:01.246Z,4.70
2018-07-10T20:39:34.742Z,4.50
2018-07-10T20:42:03.971Z,4.53
2018-07-10T20:44:37.879Z,4.43
2018-07-10T20:47:06.960Z,4.90
2018-07-10T20:49:46.614Z,4.80
2018-07-10T20:52:19.533Z,4.70
2018-07-10T20:54:59.516Z,4.03
2018-07-10T20:57:30.972Z,4.40
2018-07-10T21:00:10.712Z,5.30
2018-07-10T21:04:55.253Z,5.37
2018-07-10T21:07:28.476Z,5.27
2018-07-10T21:10:07.176Z,3.90
2018-07-10T21:12:48.180Z,4.47
2018-07-10T21:15:29.440Z,3.73
2018-07-10T21:18:04.761Z,3.10
2018-07-10T21:20:41.173Z,3.50
2018-07-10T21:24:22.376Z,3.57
2018-07-10T21:27:02.141Z,2.93
2018-07-10T21:30:39.700Z,2.97
2018-07-10T21:34:19.253Z,3.13
2018-07-10T21:39:04.823Z,3.10
2018-07-10T21:41:38.747Z,3.50
2018-07-10T21:44:39.795Z,2.23
2018-07-10T21:47:16.869Z,2.60
2018-07-10T21:49:51.053Z,2.40
2018-07-10T21:52:20.096Z,2.13
2018-07-10T21:54:49.213Z,2.50
2018-07-10T21:57:19.535Z,2.60
2018-07-10T21:59:55.315Z,2.33
2018-07-10T22:02:24.629Z,2.43
2018-07-10T22:04:55.460Z,1.97
2018-07-10T22:07:26.438Z,2.67
2018-07-10T22:09:58.568Z,2.60
2018-07-10T22:12:27.616Z,2.50
2018-07-10T22:14:56.560Z,2.50
2018-07-10T22:17:26.688Z,2.30
2018-07-10T22:19:56.177Z,2.50
2018-07-10T22:22:32.347Z,2.60
2018-07-10T22:25:02.113Z,2.70
2018-07-10T22:27:31.109Z,2.80
2018-07-10T22:30:05.816Z,2.50
2018-07-10T22:32:43.718Z,2.50
2018-07-10T22:35:13.505Z,2.60
2018-07-10T22:37:42.612Z,2.50
2018-07-10T22:40:11.936Z,2.27
2018-07-10T22:42:40.816Z,2.37
2018-07-10T22:45:09.848Z,2.40
2018-07-10T22:47:40.187Z,2.33
2018-07-10T22:50:18.616Z,2.70
2018-07-10T22:53:00.888Z,2.43
2018-07-10T22:55:31.655Z,2.50
2018-07-10T22:58:03.548Z,2.53
2018-07-10T23:00:34.387Z,2.50
2018-07-10T23:03:15.995Z,2.50
2018-07-10T23:05:45.948Z,2.63
2018-07-10T23:08:15.484Z,2.03
2018-07-10T23:10:45.058Z,2.70
2018-07-10T23:13:14.099Z,2.47
2018-07-10T23:15:43.228Z,2.47
2018-07-10T23:18:12.176Z,2.50
2018-07-10T23:20:41.152Z,2.70
2018-07-10T23:23:09.874Z,2.50
2018-07-10T23:25:38.895Z,2.80
2018-07-10T23:28:07.928Z,2.23
2018-07-10T23:30:40.051Z,2.30
2018-07-10T23:33:17.608Z,2.50
2018-07-10T23:35:51.250Z,2.40
2018-07-10T23:38:32.979Z,2.40
2018-07-10T23:41:02.888Z,2.33
2018-07-10T23:43:39.303Z,2.33
2018-07-10T23:46:15.476Z,2.50
2018-07-10T23:48:44.732Z,2.10
2018-07-10T23:51:13.672Z,2.47
2018-07-10T23:53:50.680Z,2.23
2018-07-10T23:56:20.388Z,2.33
2018-07-10T23:58:49.792Z,2.27
